sensor_id;sensor_type;location;lat;lon;timestamp;P1;durP1;ratioP1;P2;durP2;ratioP2
5171;SDS011;2605;49.770;9.868;2023-08-06T00:01:31;5.63;;;5.13;;
5171;SDS011;2605;49.770;9.868;2023-08-06T00:03:57;5.87;;;4.97;;
5171;SDS011;2605;49.770;9.868;2023-08-06T00:06:24;7.23;;;5.43;;
5171;SDS011;2605;49.770;9.868;2023-08-06T00:08:49;5.97;;;4.97;;
5171;SDS011;2605;49.770;9.868;2023-08-06T00:11:15;4.93;;;4.53;;
5171;SDS011;2605;49.770;9.868;2023-08-06T00:13:40;7.10;;;5.27;;
5171;SDS011;2605;49.770;9.868;2023-08-06T00:16:09;5.87;;;4.90;;
5171;SDS011;2605;49.770;9.868;2023-08-06T00:18:39;4.40;;;4.00;;
5171;SDS011;2605;49.770;9.868;2023-08-06T00:21:05;4.23;;;4.00;;
5171;SDS011;2605;49.770;9.868;2023-08-06T00:23:30;4.63;;;4.23;;
5171;SDS011;2605;49.770;9.868;2023-08-06T00:25:57;4.10;;;3.80;;
5171;SDS011;2605;49.770;9.868;2023-08-06T00:28:22;4.27;;;3.80;;
5171;SDS011;2605;49.770;9.868;2023-08-06T00:30:54;3.23;;;3.03;;
5171;SDS011;2605;49.770;9.868;2023-08-06T00:33:20;3.73;;;3.33;;
5171;SDS011;2605;49.770;9.868;2023-08-06T00:35:46;3.10;;;2.80;;
5171;SDS011;2605;49.770;9.868;2023-08-06T00:38:12;5.27;;;3.30;;
5171;SDS011;2605;49.770;9.868;2023-08-06T00:40:37;4.87;;;3.30;;
5171;SDS011;2605;49.770;9.868;2023-08-06T00:43:03;3.30;;;2.83;;
5171;SDS011;2605;49.770;9.868;2023-08-06T00:45:28;3.40;;;3.10;;
5171;SDS011;2605;49.770;9.868;2023-08-06T00:47:55;3.67;;;3.37;;
5171;SDS011;2605;49.770;9.868;2023-08-06T00:50:24;3.33;;;3.13;;
5171;SDS011;2605;49.770;9.868;2023-08-06T00:52:50;3.20;;;3.00;;
5171;SDS011;2605;49.770;9.868;2023-08-06T00:55:16;3.40;;;3.17;;
5171;SDS011;2605;49.770;9.868;2023-08-06T00:57:42;4.50;;;3.50;;
5171;SDS011;2605;49.770;9.868;2023-08-06T01:00:11;3.80;;;3.47;;
5171;SDS011;2605;49.770;9.868;2023-08-06T01:02:37;8.50;;;3.17;;
5171;SDS011;2605;49.770;9.868;2023-08-06T01:05:03;5.33;;;3.27;;
5171;SDS011;2605;49.770;9.868;2023-08-06T01:07:35;3.93;;;3.57;;
5171;SDS011;2605;49.770;9.868;2023-08-06T01:12:41;4.90;;;3.40;;
5171;SDS011;2605;49.770;9.868;2023-08-06T01:17:55;3.63;;;3.20;;
5171;SDS011;2605;49.770;9.868;2023-08-06T01:20:20;5.20;;;3.40;;
5171;SDS011;2605;49.770;9.868;2023-08-06T01:22:46;3.57;;;3.27;;
5171;SDS011;2605;49.770;9.868;2023-08-06T01:25:12;4.33;;;3.93;;
5171;SDS011;2605;49.770;9.868;2023-08-06T01:27:50;4.43;;;4.03;;
5171;SDS011;2605;49.770;9.868;2023-08-06T01:30:27;4.37;;;3.40;;
5171;SDS011;2605;49.770;9.868;2023-08-06T01:33:00;3.57;;;3.27;;
5171;SDS011;2605;49.770;9.868;2023-08-06T01:35:30;3.70;;;3.40;;
5171;SDS011;2605;49.770;9.868;2023-08-06T01:37:57;4.70;;;3.80;;
5171;SDS011;2605;49.770;9.868;2023-08-06T01:40:23;3.70;;;3.40;;
5171;SDS011;2605;49.770;9.868;2023-08-06T01:42:53;3.83;;;3.43;;
5171;SDS011;2605;49.770;9.868;2023-08-06T01:45:18;3.47;;;3.27;;
5171;SDS011;2605;49.770;9.868;2023-08-06T01:47:44;4.00;;;3.60;;
5171;SDS011;2605;49.770;9.868;2023-08-06T01:50:10;4.83;;;3.37;;
5171;SDS011;2605;49.770;9.868;2023-08-06T01:52:35;4.00;;;3.70;;
5171;SDS011;2605;49.770;9.868;2023-08-06T01:55:00;4.50;;;4.10;;
5171;SDS011;2605;49.770;9.868;2023-08-06T01:57:26;5.00;;;3.97;;
5171;SDS011;2605;49.770;9.868;2023-08-06T01:59:54;4.80;;;4.40;;
5171;SDS011;2605;49.770;9.868;2023-08-06T02:02:20;4.20;;;3.90;;
5171;SDS011;2605;49.770;9.868;2023-08-06T02:04:45;4.27;;;3.87;;
5171;SDS011;2605;49.770;9.868;2023-08-06T02:07:11;4.23;;;3.93;;
5171;SDS011;2605;49.770;9.868;2023-08-06T02:09:36;4.50;;;4.10;;
5171;SDS011;2605;49.770;9.868;2023-08-06T02:12:02;5.40;;;4.40;;
5171;SDS011;2605;49.770;9.868;2023-08-06T02:14:28;4.77;;;4.27;;
5171;SDS011;2605;49.770;9.868;2023-08-06T02:16:53;4.40;;;4.10;;
5171;SDS011;2605;49.770;9.868;2023-08-06T02:19:19;5.10;;;4.50;;
5171;SDS011;2605;49.770;9.868;2023-08-06T02:21:44;4.87;;;4.40;;
5171;SDS011;2605;49.770;9.868;2023-08-06T02:24:10;4.87;;;4.50;;
5171;SDS011;2605;49.770;9.868;2023-08-06T02:26:35;5.70;;;5.00;;
5171;SDS011;2605;49.770;9.868;2023-08-06T02:29:01;5.83;;;5.33;;
5171;SDS011;2605;49.770;9.868;2023-08-06T02:31:26;5.70;;;5.17;;
5171;SDS011;2605;49.770;9.868;2023-08-06T02:33:52;4.93;;;4.07;;
5171;SDS011;2605;49.770;9.868;2023-08-06T02:36:18;4.40;;;4.00;;
5171;SDS011;2605;49.770;9.868;2023-08-06T02:38:44;7.53;;;4.17;;
5171;SDS011;2605;49.770;9.868;2023-08-06T02:41:09;4.30;;;3.90;;
5171;SDS011;2605;49.770;9.868;2023-08-06T02:43:35;3.60;;;3.37;;
5171;SDS011;2605;49.770;9.868;2023-08-06T02:46:00;6.90;;;3.70;;
5171;SDS011;2605;49.770;9.868;2023-08-06T02:48:26;4.50;;;4.10;;
5171;SDS011;2605;49.770;9.868;2023-08-06T02:50:52;10.10;;;3.70;;
5171;SDS011;2605;49.770;9.868;2023-08-06T02:53:18;5.00;;;4.13;;
5171;SDS011;2605;49.770;9.868;2023-08-06T02:55:46;3.43;;;3.20;;
5171;SDS011;2605;49.770;9.868;2023-08-06T02:58:13;6.30;;;3.83;;
5171;SDS011;2605;49.770;9.868;2023-08-06T03:00:39;3.67;;;3.47;;
5171;SDS011;2605;49.770;9.868;2023-08-06T03:03:04;4.20;;;3.90;;
5171;SDS011;2605;49.770;9.868;2023-08-06T03:05:30;4.50;;;4.10;;
5171;SDS011;2605;49.770;9.868;2023-08-06T03:07:55;4.23;;;3.73;;
5171;SDS011;2605;49.770;9.868;2023-08-06T03:10:21;4.90;;;4.00;;
5171;SDS011;2605;49.770;9.868;2023-08-06T03:12:46;4.20;;;3.87;;
5171;SDS011;2605;49.770;9.868;2023-08-06T03:15:12;3.63;;;3.40;;
5171;SDS011;2605;49.770;9.868;2023-08-06T03:17:38;5.40;;;3.60;;
5171;SDS011;2605;49.770;9.868;2023-08-06T03:20:03;3.57;;;3.27;;
5171;SDS011;2605;49.770;9.868;2023-08-06T03:22:29;7.40;;;3.60;;
5171;SDS011;2605;49.770;9.868;2023-08-06T03:24:55;3.60;;;3.30;;
5171;SDS011;2605;49.770;9.868;2023-08-06T03:27:20;5.13;;;3.30;;
5171;SDS011;2605;49.770;9.868;2023-08-06T03:29:48;5.33;;;3.77;;
5171;SDS011;2605;49.770;9.868;2023-08-06T03:32:16;3.50;;;3.30;;
5171;SDS011;2605;49.770;9.868;2023-08-06T03:34:42;3.47;;;3.17;;
5171;SDS011;2605;49.770;9.868;2023-08-06T03:37:08;3.80;;;3.40;;
5171;SDS011;2605;49.770;9.868;2023-08-06T03:39:33;9.23;;;3.67;;
5171;SDS011;2605;49.770;9.868;2023-08-06T03:41:58;3.80;;;3.50;;
5171;SDS011;2605;49.770;9.868;2023-08-06T03:44:24;6.93;;;6.10;;
5171;SDS011;2605;49.770;9.868;2023-08-06T03:46:50;3.67;;;3.37;;
5171;SDS011;2605;49.770;9.868;2023-08-06T03:49:15;3.07;;;2.87;;
5171;SDS011;2605;49.770;9.868;2023-08-06T03:51:41;4.07;;;3.50;;
5171;SDS011;2605;49.770;9.868;2023-08-06T03:54:09;3.63;;;3.33;;
5171;SDS011;2605;49.770;9.868;2023-08-06T03:56:35;5.60;;;3.23;;
5171;SDS011;2605;49.770;9.868;2023-08-06T03:59:00;4.70;;;3.63;;
5171;SDS011;2605;49.770;9.868;2023-08-06T04:01:26;3.80;;;3.50;;
5171;SDS011;2605;49.770;9.868;2023-08-06T04:03:51;3.90;;;3.50;;
5171;SDS011;2605;49.770;9.868;2023-08-06T04:06:17;5.80;;;2.90;;
5171;SDS011;2605;49.770;9.868;2023-08-06T04:08:42;2.83;;;2.63;;
5171;SDS011;2605;49.770;9.868;2023-08-06T04:11:08;4.50;;;3.07;;
5171;SDS011;2605;49.770;9.868;2023-08-06T04:13:34;3.00;;;2.80;;
5171;SDS011;2605;49.770;9.868;2023-08-06T04:16:02;4.20;;;3.67;;
5171;SDS011;2605;49.770;9.868;2023-08-06T04:18:28;7.00;;;3.90;;
5171;SDS011;2605;49.770;9.868;2023-08-06T04:20:53;3.27;;;3.00;;
5171;SDS011;2605;49.770;9.868;2023-08-06T04:23:20;4.10;;;3.47;;
5171;SDS011;2605;49.770;9.868;2023-08-06T04:25:46;5.37;;;3.40;;
5171;SDS011;2605;49.770;9.868;2023-08-06T04:28:11;3.47;;;3.23;;
5171;SDS011;2605;49.770;9.868;2023-08-06T04:30:37;3.27;;;3.00;;
5171;SDS011;2605;49.770;9.868;2023-08-06T04:33:03;2.80;;;2.60;;
5171;SDS011;2605;49.770;9.868;2023-08-06T04:35:29;3.57;;;3.33;;
5171;SDS011;2605;49.770;9.868;2023-08-06T04:37:54;3.93;;;3.50;;
5171;SDS011;2605;49.770;9.868;2023-08-06T04:40:20;4.13;;;3.80;;
5171;SDS011;2605;49.770;9.868;2023-08-06T04:42:45;3.57;;;3.00;;
5171;SDS011;2605;49.770;9.868;2023-08-06T04:45:10;4.50;;;3.80;;
5171;SDS011;2605;49.770;9.868;2023-08-06T04:47:36;3.57;;;3.10;;
5171;SDS011;2605;49.770;9.868;2023-08-06T04:50:01;3.73;;;3.43;;
5171;SDS011;2605;49.770;9.868;2023-08-06T04:52:30;4.07;;;3.00;;
5171;SDS011;2605;49.770;9.868;2023-08-06T04:54:57;3.67;;;3.13;;
5171;SDS011;2605;49.770;9.868;2023-08-06T04:57:22;5.00;;;3.50;;
5171;SDS011;2605;49.770;9.868;2023-08-06T04:59:48;3.17;;;2.87;;
5171;SDS011;2605;49.770;9.868;2023-08-06T05:02:14;3.07;;;2.87;;
5171;SDS011;2605;49.770;9.868;2023-08-06T05:04:39;3.10;;;2.87;;
5171;SDS011;2605;49.770;9.868;2023-08-06T05:07:05;3.53;;;2.90;;
5171;SDS011;2605;49.770;9.868;2023-08-06T05:09:31;3.17;;;2.63;;
5171;SDS011;2605;49.770;9.868;2023-08-06T05:11:57;2.40;;;2.20;;
5171;SDS011;2605;49.770;9.868;2023-08-06T05:14:22;3.03;;;2.70;;
5171;SDS011;2605;49.770;9.868;2023-08-06T05:16:48;3.87;;;3.57;;
5171;SDS011;2605;49.770;9.868;2023-08-06T05:19:13;2.50;;;2.30;;
5171;SDS011;2605;49.770;9.868;2023-08-06T05:21:39;2.77;;;2.43;;
5171;SDS011;2605;49.770;9.868;2023-08-06T05:24:04;3.10;;;2.80;;
5171;SDS011;2605;49.770;9.868;2023-08-06T05:26:30;2.47;;;2.30;;
5171;SDS011;2605;49.770;9.868;2023-08-06T05:28:55;3.63;;;3.43;;
5171;SDS011;2605;49.770;9.868;2023-08-06T05:31:21;3.33;;;2.73;;
5171;SDS011;2605;49.770;9.868;2023-08-06T05:33:46;2.93;;;2.73;;
5171;SDS011;2605;49.770;9.868;2023-08-06T05:36:12;4.30;;;3.17;;
5171;SDS011;2605;49.770;9.868;2023-08-06T05:38:38;4.40;;;2.77;;
5171;SDS011;2605;49.770;9.868;2023-08-06T05:41:03;7.70;;;2.90;;
5171;SDS011;2605;49.770;9.868;2023-08-06T05:43:29;6.43;;;2.40;;
5171;SDS011;2605;49.770;9.868;2023-08-06T05:45:55;4.67;;;2.57;;
5171;SDS011;2605;49.770;9.868;2023-08-06T05:48:21;2.27;;;2.07;;
5171;SDS011;2605;49.770;9.868;2023-08-06T05:50:49;2.33;;;1.97;;
5171;SDS011;2605;49.770;9.868;2023-08-06T05:53:17;2.40;;;2.20;;
5171;SDS011;2605;49.770;9.868;2023-08-06T05:55:43;2.23;;;2.03;;
5171;SDS011;2605;49.770;9.868;2023-08-06T05:58:09;2.53;;;2.20;;
5171;SDS011;2605;49.770;9.868;2023-08-06T06:00:35;5.30;;;2.60;;
5171;SDS011;2605;49.770;9.868;2023-08-06T06:03:00;7.33;;;2.87;;
5171;SDS011;2605;49.770;9.868;2023-08-06T06:05:27;2.13;;;2.00;;
5171;SDS011;2605;49.770;9.868;2023-08-06T06:07:53;2.13;;;1.97;;
5171;SDS011;2605;49.770;9.868;2023-08-06T06:10:18;3.20;;;1.90;;
5171;SDS011;2605;49.770;9.868;2023-08-06T06:12:44;3.00;;;2.03;;
5171;SDS011;2605;49.770;9.868;2023-08-06T06:15:09;5.83;;;3.00;;
5171;SDS011;2605;49.770;9.868;2023-08-06T06:17:35;2.80;;;2.20;;
5171;SDS011;2605;49.770;9.868;2023-08-06T06:20:00;1.90;;;1.77;;
5171;SDS011;2605;49.770;9.868;2023-08-06T06:22:26;5.37;;;2.23;;
5171;SDS011;2605;49.770;9.868;2023-08-06T06:24:51;3.83;;;2.53;;
5171;SDS011;2605;49.770;9.868;2023-08-06T06:27:17;2.90;;;2.00;;
5171;SDS011;2605;49.770;9.868;2023-08-06T06:29:42;2.10;;;1.87;;
5171;SDS011;2605;49.770;9.868;2023-08-06T06:32:08;1.77;;;1.67;;
5171;SDS011;2605;49.770;9.868;2023-08-06T06:34:33;11.00;;;1.73;;
5171;SDS011;2605;49.770;9.868;2023-08-06T06:36:59;3.13;;;2.47;;
5171;SDS011;2605;49.770;9.868;2023-08-06T06:39:25;4.70;;;2.13;;
5171;SDS011;2605;49.770;9.868;2023-08-06T06:41:50;3.40;;;2.47;;
5171;SDS011;2605;49.770;9.868;2023-08-06T06:44:16;2.93;;;2.03;;
5171;SDS011;2605;49.770;9.868;2023-08-06T06:46:41;2.80;;;2.10;;
5171;SDS011;2605;49.770;9.868;2023-08-06T06:49:10;1.40;;;1.30;;
5171;SDS011;2605;49.770;9.868;2023-08-06T06:51:35;2.20;;;2.00;;
5171;SDS011;2605;49.770;9.868;2023-08-06T06:54:01;3.63;;;2.67;;
5171;SDS011;2605;49.770;9.868;2023-08-06T06:56:26;2.10;;;1.90;;
5171;SDS011;2605;49.770;9.868;2023-08-06T06:58:52;2.10;;;1.63;;
5171;SDS011;2605;49.770;9.868;2023-08-06T07:01:17;1.60;;;1.50;;
5171;SDS011;2605;49.770;9.868;2023-08-06T07:03:43;2.60;;;1.33;;
5171;SDS011;2605;49.770;9.868;2023-08-06T07:06:08;2.77;;;1.80;;
5171;SDS011;2605;49.770;9.868;2023-08-06T07:08:37;1.60;;;1.50;;
5171;SDS011;2605;49.770;9.868;2023-08-06T07:11:03;1.60;;;1.50;;
5171;SDS011;2605;49.770;9.868;2023-08-06T07:13:29;1.67;;;1.50;;
5171;SDS011;2605;49.770;9.868;2023-08-06T07:15:55;1.80;;;1.63;;
5171;SDS011;2605;49.770;9.868;2023-08-06T07:18:21;3.00;;;1.50;;
5171;SDS011;2605;49.770;9.868;2023-08-06T07:20:50;2.07;;;1.40;;
5171;SDS011;2605;49.770;9.868;2023-08-06T07:23:17;1.50;;;1.40;;
5171;SDS011;2605;49.770;9.868;2023-08-06T07:25:45;1.67;;;1.57;;
5171;SDS011;2605;49.770;9.868;2023-08-06T07:28:11;2.30;;;1.50;;
5171;SDS011;2605;49.770;9.868;2023-08-06T07:30:41;3.27;;;2.03;;
5171;SDS011;2605;49.770;9.868;2023-08-06T07:33:07;2.10;;;1.90;;
5171;SDS011;2605;49.770;9.868;2023-08-06T07:35:32;1.20;;;1.10;;
5171;SDS011;2605;49.770;9.868;2023-08-06T07:38:01;0.93;;;0.93;;
5171;SDS011;2605;49.770;9.868;2023-08-06T07:40:27;1.87;;;0.90;;
5171;SDS011;2605;49.770;9.868;2023-08-06T07:42:53;1.57;;;0.87;;
5171;SDS011;2605;49.770;9.868;2023-08-06T07:45:19;4.50;;;1.20;;
5171;SDS011;2605;49.770;9.868;2023-08-06T07:47:44;1.13;;;0.97;;
5171;SDS011;2605;49.770;9.868;2023-08-06T07:50:10;1.27;;;1.20;;
5171;SDS011;2605;49.770;9.868;2023-08-06T07:52:36;1.70;;;0.93;;
5171;SDS011;2605;49.770;9.868;2023-08-06T07:55:01;1.00;;;1.00;;
5171;SDS011;2605;49.770;9.868;2023-08-06T07:57:30;2.03;;;1.30;;
5171;SDS011;2605;49.770;9.868;2023-08-06T07:59:56;3.63;;;1.00;;
5171;SDS011;2605;49.770;9.868;2023-08-06T08:02:21;2.60;;;1.00;;
5171;SDS011;2605;49.770;9.868;2023-08-06T08:04:47;1.00;;;0.90;;
5171;SDS011;2605;49.770;9.868;2023-08-06T08:07:13;0.90;;;0.90;;
5171;SDS011;2605;49.770;9.868;2023-08-06T08:09:42;1.17;;;1.10;;
5171;SDS011;2605;49.770;9.868;2023-08-06T08:12:07;0.90;;;0.90;;
5171;SDS011;2605;49.770;9.868;2023-08-06T08:14:33;0.90;;;0.90;;
5171;SDS011;2605;49.770;9.868;2023-08-06T08:17:04;1.87;;;1.00;;
5171;SDS011;2605;49.770;9.868;2023-08-06T08:19:33;1.00;;;1.00;;
5171;SDS011;2605;49.770;9.868;2023-08-06T08:21:58;2.40;;;0.90;;
5171;SDS011;2605;49.770;9.868;2023-08-06T08:24:24;3.53;;;0.80;;
5171;SDS011;2605;49.770;9.868;2023-08-06T08:26:50;0.90;;;0.90;;
5171;SDS011;2605;49.770;9.868;2023-08-06T08:29:17;1.87;;;0.90;;
5171;SDS011;2605;49.770;9.868;2023-08-06T08:31:42;3.03;;;0.93;;
5171;SDS011;2605;49.770;9.868;2023-08-06T08:34:09;0.80;;;0.80;;
5171;SDS011;2605;49.770;9.868;2023-08-06T08:36:34;1.40;;;1.00;;
5171;SDS011;2605;49.770;9.868;2023-08-06T08:39:00;1.83;;;1.60;;
5171;SDS011;2605;49.770;9.868;2023-08-06T08:41:29;0.90;;;0.90;;
5171;SDS011;2605;49.770;9.868;2023-08-06T08:43:56;1.00;;;0.90;;
5171;SDS011;2605;49.770;9.868;2023-08-06T08:46:26;0.80;;;0.80;;
5171;SDS011;2605;49.770;9.868;2023-08-06T08:48:54;0.83;;;0.83;;
5171;SDS011;2605;49.770;9.868;2023-08-06T08:51:21;0.90;;;0.80;;
5171;SDS011;2605;49.770;9.868;2023-08-06T08:53:48;0.70;;;0.70;;
5171;SDS011;2605;49.770;9.868;2023-08-06T08:56:17;1.23;;;0.90;;
5171;SDS011;2605;49.770;9.868;2023-08-06T08:58:44;0.70;;;0.70;;
5171;SDS011;2605;49.770;9.868;2023-08-06T09:01:12;1.30;;;0.83;;
5171;SDS011;2605;49.770;9.868;2023-08-06T09:03:39;0.70;;;0.70;;
5171;SDS011;2605;49.770;9.868;2023-08-06T09:06:05;0.90;;;0.70;;
5171;SDS011;2605;49.770;9.868;2023-08-06T09:08:34;0.90;;;0.80;;
5171;SDS011;2605;49.770;9.868;2023-08-06T09:11:03;1.37;;;0.80;;
5171;SDS011;2605;49.770;9.868;2023-08-06T09:13:36;0.90;;;0.90;;
5171;SDS011;2605;49.770;9.868;2023-08-06T09:16:03;0.70;;;0.70;;
5171;SDS011;2605;49.770;9.868;2023-08-06T09:18:29;0.80;;;0.80;;
5171;SDS011;2605;49.770;9.868;2023-08-06T09:20:55;0.80;;;0.80;;
5171;SDS011;2605;49.770;9.868;2023-08-06T09:23:27;1.23;;;0.70;;
5171;SDS011;2605;49.770;9.868;2023-08-06T09:25:55;1.83;;;1.63;;
5171;SDS011;2605;49.770;9.868;2023-08-06T09:28:21;0.80;;;0.80;;
5171;SDS011;2605;49.770;9.868;2023-08-06T09:30:47;0.60;;;0.60;;
5171;SDS011;2605;49.770;9.868;2023-08-06T09:33:14;0.90;;;0.90;;
5171;SDS011;2605;49.770;9.868;2023-08-06T09:35:43;1.00;;;0.83;;
5171;SDS011;2605;49.770;9.868;2023-08-06T09:38:10;1.17;;;0.70;;
5171;SDS011;2605;49.770;9.868;2023-08-06T09:40:36;1.00;;;1.00;;
5171;SDS011;2605;49.770;9.868;2023-08-06T09:43:02;2.63;;;0.80;;
5171;SDS011;2605;49.770;9.868;2023-08-06T09:45:32;0.77;;;0.77;;
5171;SDS011;2605;49.770;9.868;2023-08-06T09:48:08;0.80;;;0.80;;
5171;SDS011;2605;49.770;9.868;2023-08-06T09:50:35;2.20;;;0.70;;
5171;SDS011;2605;49.770;9.868;2023-08-06T09:53:03;0.70;;;0.70;;
5171;SDS011;2605;49.770;9.868;2023-08-06T09:55:33;0.70;;;0.70;;
5171;SDS011;2605;49.770;9.868;2023-08-06T09:57:59;0.70;;;0.70;;
5171;SDS011;2605;49.770;9.868;2023-08-06T10:00:25;0.80;;;0.80;;
5171;SDS011;2605;49.770;9.868;2023-08-06T10:02:52;0.80;;;0.80;;
5171;SDS011;2605;49.770;9.868;2023-08-06T10:05:20;0.80;;;0.80;;
5171;SDS011;2605;49.770;9.868;2023-08-06T10:07:47;0.80;;;0.80;;
5171;SDS011;2605;49.770;9.868;2023-08-06T10:10:15;0.77;;;0.77;;
5171;SDS011;2605;49.770;9.868;2023-08-06T10:12:43;0.87;;;0.87;;
5171;SDS011;2605;49.770;9.868;2023-08-06T10:15:14;1.10;;;1.00;;
5171;SDS011;2605;49.770;9.868;2023-08-06T10:17:42;1.03;;;1.03;;
5171;SDS011;2605;49.770;9.868;2023-08-06T10:20:10;0.97;;;0.97;;
5171;SDS011;2605;49.770;9.868;2023-08-06T10:22:37;1.00;;;1.00;;
5171;SDS011;2605;49.770;9.868;2023-08-06T10:25:08;1.13;;;1.00;;
5171;SDS011;2605;49.770;9.868;2023-08-06T10:27:34;0.90;;;0.90;;
5171;SDS011;2605;49.770;9.868;2023-08-06T10:30:26;0.70;;;0.70;;
5171;SDS011;2605;49.770;9.868;2023-08-06T10:32:53;1.23;;;1.00;;
5171;SDS011;2605;49.770;9.868;2023-08-06T10:35:34;0.80;;;0.80;;
5171;SDS011;2605;49.770;9.868;2023-08-06T10:38:11;0.93;;;0.93;;
5171;SDS011;2605;49.770;9.868;2023-08-06T10:40:50;5.80;;;1.10;;
5171;SDS011;2605;49.770;9.868;2023-08-06T10:43:25;0.90;;;0.90;;
5171;SDS011;2605;49.770;9.868;2023-08-06T10:45:59;0.90;;;0.90;;
5171;SDS011;2605;49.770;9.868;2023-08-06T10:50:56;0.90;;;0.90;;
5171;SDS011;2605;49.770;9.868;2023-08-06T10:53:23;0.80;;;0.80;;
5171;SDS011;2605;49.770;9.868;2023-08-06T10:55:49;0.80;;;0.80;;
5171;SDS011;2605;49.770;9.868;2023-08-06T10:58:15;0.90;;;0.90;;
5171;SDS011;2605;49.770;9.868;2023-08-06T11:00:41;1.20;;;1.00;;
5171;SDS011;2605;49.770;9.868;2023-08-06T11:03:07;3.03;;;0.90;;
5171;SDS011;2605;49.770;9.868;2023-08-06T11:05:33;0.80;;;0.80;;
5171;SDS011;2605;49.770;9.868;2023-08-06T11:08:00;0.70;;;0.70;;
5171;SDS011;2605;49.770;9.868;2023-08-06T11:10:26;0.90;;;0.90;;
5171;SDS011;2605;49.770;9.868;2023-08-06T11:12:51;1.00;;;0.90;;
5171;SDS011;2605;49.770;9.868;2023-08-06T11:15:20;0.90;;;0.90;;
5171;SDS011;2605;49.770;9.868;2023-08-06T11:17:46;1.10;;;1.00;;
5171;SDS011;2605;49.770;9.868;2023-08-06T11:20:12;0.80;;;0.80;;
5171;SDS011;2605;49.770;9.868;2023-08-06T11:22:38;0.90;;;0.70;;
5171;SDS011;2605;49.770;9.868;2023-08-06T11:25:04;1.47;;;0.87;;
5171;SDS011;2605;49.770;9.868;2023-08-06T11:27:31;0.80;;;0.80;;
5171;SDS011;2605;49.770;9.868;2023-08-06T11:29:56;0.80;;;0.80;;
5171;SDS011;2605;49.770;9.868;2023-08-06T11:32:22;0.90;;;0.90;;
5171;SDS011;2605;49.770;9.868;2023-08-06T11:34:47;1.63;;;0.70;;
5171;SDS011;2605;49.770;9.868;2023-08-06T11:37:13;0.70;;;0.70;;
5171;SDS011;2605;49.770;9.868;2023-08-06T11:39:39;0.70;;;0.70;;
5171;SDS011;2605;49.770;9.868;2023-08-06T11:42:11;0.60;;;0.60;;
5171;SDS011;2605;49.770;9.868;2023-08-06T11:44:37;0.60;;;0.60;;
5171;SDS011;2605;49.770;9.868;2023-08-06T11:47:03;0.60;;;0.60;;
5171;SDS011;2605;49.770;9.868;2023-08-06T11:50:03;0.60;;;0.60;;
5171;SDS011;2605;49.770;9.868;2023-08-06T11:52:23;0.90;;;0.60;;
5171;SDS011;2605;49.770;9.868;2023-08-06T11:55:05;0.83;;;0.80;;
5171;SDS011;2605;49.770;9.868;2023-08-06T11:57:33;3.27;;;0.90;;
5171;SDS011;2605;49.770;9.868;2023-08-06T12:00:06;4.40;;;0.70;;
5171;SDS011;2605;49.770;9.868;2023-08-06T12:02:34;0.60;;;0.60;;
5171;SDS011;2605;49.770;9.868;2023-08-06T12:05:09;2.53;;;0.87;;
5171;SDS011;2605;49.770;9.868;2023-08-06T12:07:49;0.90;;;0.70;;
5171;SDS011;2605;49.770;9.868;2023-08-06T12:10:19;0.60;;;0.60;;
5171;SDS011;2605;49.770;9.868;2023-08-06T12:12:46;0.70;;;0.70;;
5171;SDS011;2605;49.770;9.868;2023-08-06T12:15:12;0.70;;;0.70;;
5171;SDS011;2605;49.770;9.868;2023-08-06T12:17:38;0.50;;;0.50;;
5171;SDS011;2605;49.770;9.868;2023-08-06T12:20:05;0.70;;;0.70;;
5171;SDS011;2605;49.770;9.868;2023-08-06T12:22:31;2.93;;;0.70;;
5171;SDS011;2605;49.770;9.868;2023-08-06T12:25:00;0.70;;;0.70;;
5171;SDS011;2605;49.770;9.868;2023-08-06T12:27:27;0.83;;;0.80;;
5171;SDS011;2605;49.770;9.868;2023-08-06T12:29:52;0.60;;;0.60;;
5171;SDS011;2605;49.770;9.868;2023-08-06T12:32:18;0.60;;;0.60;;
5171;SDS011;2605;49.770;9.868;2023-08-06T12:34:44;0.80;;;0.80;;
5171;SDS011;2605;49.770;9.868;2023-08-06T12:37:09;1.47;;;0.80;;
5171;SDS011;2605;49.770;9.868;2023-08-06T12:39:36;0.73;;;0.73;;
5171;SDS011;2605;49.770;9.868;2023-08-06T12:42:02;1.47;;;0.70;;
5171;SDS011;2605;49.770;9.868;2023-08-06T12:44:29;0.90;;;0.90;;
5171;SDS011;2605;49.770;9.868;2023-08-06T12:46:54;2.10;;;0.90;;
5171;SDS011;2605;49.770;9.868;2023-08-06T12:49:20;1.00;;;1.00;;
5171;SDS011;2605;49.770;9.868;2023-08-06T12:51:47;3.43;;;1.13;;
5171;SDS011;2605;49.770;9.868;2023-08-06T12:54:13;0.90;;;0.90;;
5171;SDS011;2605;49.770;9.868;2023-08-06T12:56:38;1.10;;;1.10;;
5171;SDS011;2605;49.770;9.868;2023-08-06T12:59:04;1.47;;;1.40;;
5171;SDS011;2605;49.770;9.868;2023-08-06T13:01:29;1.70;;;1.60;;
5171;SDS011;2605;49.770;9.868;2023-08-06T13:03:55;1.87;;;1.77;;
5171;SDS011;2605;49.770;9.868;2023-08-06T13:06:20;3.23;;;1.20;;
5171;SDS011;2605;49.770;9.868;2023-08-06T13:08:46;1.00;;;0.80;;
5171;SDS011;2605;49.770;9.868;2023-08-06T13:11:11;0.80;;;0.80;;
5171;SDS011;2605;49.770;9.868;2023-08-06T13:13:40;0.90;;;0.90;;
5171;SDS011;2605;49.770;9.868;2023-08-06T13:16:05;0.90;;;0.70;;
5171;SDS011;2605;49.770;9.868;2023-08-06T13:18:31;1.70;;;0.90;;
5171;SDS011;2605;49.770;9.868;2023-08-06T13:20:56;0.70;;;0.70;;
5171;SDS011;2605;49.770;9.868;2023-08-06T13:23:22;6.20;;;1.00;;
5171;SDS011;2605;49.770;9.868;2023-08-06T13:25:47;0.60;;;0.60;;
5171;SDS011;2605;49.770;9.868;2023-08-06T13:28:13;0.60;;;0.60;;
5171;SDS011;2605;49.770;9.868;2023-08-06T13:30:41;0.80;;;0.80;;
5171;SDS011;2605;49.770;9.868;2023-08-06T13:33:07;0.70;;;0.70;;
5171;SDS011;2605;49.770;9.868;2023-08-06T13:35:33;0.90;;;0.67;;
5171;SDS011;2605;49.770;9.868;2023-08-06T13:37:59;0.80;;;0.80;;
5171;SDS011;2605;49.770;9.868;2023-08-06T13:40:24;0.70;;;0.70;;
5171;SDS011;2605;49.770;9.868;2023-08-06T13:42:52;0.93;;;0.90;;
5171;SDS011;2605;49.770;9.868;2023-08-06T13:45:18;0.70;;;0.70;;
5171;SDS011;2605;49.770;9.868;2023-08-06T13:47:43;0.70;;;0.70;;
5171;SDS011;2605;49.770;9.868;2023-08-06T13:50:09;0.70;;;0.70;;
5171;SDS011;2605;49.770;9.868;2023-08-06T13:52:38;1.67;;;0.80;;
5171;SDS011;2605;49.770;9.868;2023-08-06T13:55:04;1.00;;;0.83;;
5171;SDS011;2605;49.770;9.868;2023-08-06T13:57:30;0.90;;;0.90;;
5171;SDS011;2605;49.770;9.868;2023-08-06T13:59:55;0.93;;;0.93;;
5171;SDS011;2605;49.770;9.868;2023-08-06T14:02:21;1.33;;;0.97;;
5171;SDS011;2605;49.770;9.868;2023-08-06T14:04:47;1.00;;;1.00;;
5171;SDS011;2605;49.770;9.868;2023-08-06T14:07:13;0.97;;;0.97;;
5171;SDS011;2605;49.770;9.868;2023-08-06T14:09:38;1.40;;;1.30;;
5171;SDS011;2605;49.770;9.868;2023-08-06T14:12:05;1.30;;;1.20;;
5171;SDS011;2605;49.770;9.868;2023-08-06T14:14:31;1.13;;;1.03;;
5171;SDS011;2605;49.770;9.868;2023-08-06T14:16:56;1.03;;;0.93;;
5171;SDS011;2605;49.770;9.868;2023-08-06T14:19:22;1.07;;;1.07;;
5171;SDS011;2605;49.770;9.868;2023-08-06T14:21:48;0.80;;;0.80;;
5171;SDS011;2605;49.770;9.868;2023-08-06T14:24:14;1.03;;;1.00;;
5171;SDS011;2605;49.770;9.868;2023-08-06T14:26:40;1.10;;;1.00;;
5171;SDS011;2605;49.770;9.868;2023-08-06T14:29:05;0.83;;;0.83;;
5171;SDS011;2605;49.770;9.868;2023-08-06T14:31:31;1.20;;;1.10;;
5171;SDS011;2605;49.770;9.868;2023-08-06T14:33:56;1.40;;;1.17;;
5171;SDS011;2605;49.770;9.868;2023-08-06T14:36:22;0.90;;;0.90;;
5171;SDS011;2605;49.770;9.868;2023-08-06T14:38:48;2.77;;;1.10;;
5171;SDS011;2605;49.770;9.868;2023-08-06T14:41:13;1.27;;;1.03;;
5171;SDS011;2605;49.770;9.868;2023-08-06T14:43:38;0.80;;;0.80;;
5171;SDS011;2605;49.770;9.868;2023-08-06T14:46:04;1.43;;;1.03;;
5171;SDS011;2605;49.770;9.868;2023-08-06T14:48:30;1.13;;;0.83;;
5171;SDS011;2605;49.770;9.868;2023-08-06T14:50:56;0.90;;;0.90;;
5171;SDS011;2605;49.770;9.868;2023-08-06T14:53:21;4.20;;;0.80;;
5171;SDS011;2605;49.770;9.868;2023-08-06T14:55:47;4.20;;;0.80;;
5171;SDS011;2605;49.770;9.868;2023-08-06T14:58:13;0.83;;;0.83;;
5171;SDS011;2605;49.770;9.868;2023-08-06T15:00:38;1.33;;;0.77;;
5171;SDS011;2605;49.770;9.868;2023-08-06T15:03:04;0.77;;;0.77;;
5171;SDS011;2605;49.770;9.868;2023-08-06T15:05:29;1.40;;;1.30;;
5171;SDS011;2605;49.770;9.868;2023-08-06T15:07:55;1.20;;;1.10;;
5171;SDS011;2605;49.770;9.868;2023-08-06T15:10:20;1.03;;;1.03;;
5171;SDS011;2605;49.770;9.868;2023-08-06T15:12:46;1.00;;;0.80;;
5171;SDS011;2605;49.770;9.868;2023-08-06T15:15:11;2.00;;;1.00;;
5171;SDS011;2605;49.770;9.868;2023-08-06T15:17:37;0.83;;;0.70;;
5171;SDS011;2605;49.770;9.868;2023-08-06T15:20:03;1.03;;;0.90;;